Time;durP1;ratioP1;P1;durP2;ratioP2;P2;SDS_P1;SDS_P2;PMS_P1;PMS_P2;Temp;Humidity;BMP_temperature;BMP_pressure;BME280_temperature;BME280_humidity;BME280_pressure;Samples;Min_cycle;Max_cycle;Signal;HPM_P1;HPM_P2
2021/09/07 00:00:44;;;;;;;7.18;4.05;;;;;;;15.50;51.03;101978.09;8017715;28;20082;-69
2021/09/07 00:04:35;;;;;;;6.88;3.95;;;;;;;15.48;51.28;101979.16;8019059;28;20116;-69
2021/09/07 00:08:25;;;;;;;6.15;3.80;;;;;;;15.43;51.41;101975.97;8011422;28;20036;-69
2021/09/07 00:12:16;;;;;;;7.95;4.65;;;;;;;15.39;51.16;101970.06;8020277;28;20024;-68
2021/09/07 00:16:08;;;;;;;4.88;3.58;;;;;;;15.34;51.27;101958.06;8020953;28;20115;-69
2021/09/07 00:19:59;;;;;;;6.43;3.40;;;;;;;15.33;51.28;101972.28;8021978;28;20024;-69
2021/09/07 00:23:49;;;;;;;6.75;4.32;;;;;;;15.29;51.36;101971.66;8001265;28;20728;-69
2021/09/07 00:27:40;;;;;;;5.50;4.15;;;;;;;15.26;51.40;101972.66;8002532;28;20033;-69
2021/09/07 00:31:31;;;;;;;7.53;4.20;;;;;;;15.23;51.38;101969.38;8022649;28;20062;-69
2021/09/07 00:35:23;;;;;;;6.45;4.10;;;;;;;15.20;51.50;101961.66;8011712;28;20112;-69
2021/09/07 00:39:14;;;;;;;8.25;4.43;;;;;;;15.17;51.43;101954.75;8013315;28;20039;-69
2021/09/07 00:43:05;;;;;;;6.43;4.00;;;;;;;15.15;51.55;101972.56;8013228;28;20024;-69
2021/09/07 00:46:58;;;;;;;6.80;4.47;;;;;;;15.11;51.77;101962.28;8013253;28;20037;-69
2021/09/07 00:50:49;;;;;;;7.45;4.32;;;;;;;15.08;51.70;101959.84;8010312;28;20039;-69
2021/09/07 00:54:39;;;;;;;7.93;4.30;;;;;;;15.03;51.64;101946.94;8015536;28;20040;-69
2021/09/07 00:58:31;;;;;;;5.32;3.83;;;;;;;15.02;51.77;101947.03;8014919;28;20371;-69
2021/09/07 01:02:23;;;;;;;7.32;3.97;;;;;;;14.98;51.88;101953.47;8016954;28;20027;-69
2021/09/07 01:06:14;;;;;;;9.18;4.28;;;;;;;14.94;52.09;101954.63;8018038;28;20050;-68
2021/09/07 01:10:06;;;;;;;6.13;4.07;;;;;;;14.92;51.95;101954.72;8016148;28;20108;-68
2021/09/07 01:13:57;;;;;;;6.93;4.22;;;;;;;14.88;51.90;101947.94;8027994;28;20032;-69
2021/09/07 01:17:50;;;;;;;5.28;3.75;;;;;;;14.86;51.86;101949.00;8015386;28;20091;-69
2021/09/07 01:21:41;;;;;;;6.75;4.28;;;;;;;14.80;52.08;101951.09;8027458;28;20803;-69
2021/09/07 01:25:31;;;;;;;5.38;3.90;;;;;;;14.77;52.22;101945.19;8003721;28;20048;-69
2021/09/07 01:29:25;;;;;;;5.60;3.75;;;;;;;14.75;51.96;101939.97;8007631;28;20600;-69
2021/09/07 01:33:16;;;;;;;4.95;3.58;;;;;;;14.71;51.99;101935.84;7999132;28;20042;-68
2021/09/07 01:37:08;;;;;;;5.82;3.70;;;;;;;14.68;52.07;101929.91;8006161;28;20124;-69
2021/09/07 01:40:59;;;;;;;8.40;3.67;;;;;;;14.66;52.30;101921.25;8001810;28;20033;-68
2021/09/07 01:44:50;;;;;;;6.60;4.22;;;;;;;14.63;52.12;101924.94;8015220;28;20037;-69
2021/09/07 01:48:41;;;;;;;4.38;3.55;;;;;;;14.61;52.16;101923.34;8016438;28;20478;-69
2021/09/07 01:52:32;;;;;;;7.40;4.00;;;;;;;14.55;52.42;101921.94;8017705;28;20029;-69
2021/09/07 01:56:24;;;;;;;8.93;4.40;;;;;;;14.55;52.39;101931.69;8011095;28;20052;-68
2021/09/07 02:00:18;;;;;;;5.90;4.22;;;;;;;14.53;52.41;101938.88;8010507;28;20028;-69
2021/09/07 02:04:08;;;;;;;5.18;4.03;;;;;;;14.50;52.57;101932.00;8020223;28;20056;-68
2021/09/07 02:08:00;;;;;;;4.40;3.20;;;;;;;14.48;52.33;101925.09;8009811;28;20033;-68
2021/09/07 02:11:50;;;;;;;4.97;3.60;;;;;;;14.44;52.35;101924.47;8014646;28;20026;-69
2021/09/07 02:15:41;;;;;;;7.57;3.50;;;;;;;14.41;52.59;101924.63;8009604;28;20108;-69
2021/09/07 02:19:32;;;;;;;6.35;4.13;;;;;;;14.36;52.61;101924.94;8007049;28;20043;-69
2021/09/07 02:23:24;;;;;;;6.18;4.30;;;;;;;14.35;52.70;101939.09;8010822;28;20029;-69
2021/09/07 02:27:15;;;;;;;7.38;4.63;;;;;;;14.32;52.56;101931.38;8012977;28;20524;-69
2021/09/07 02:31:07;;;;;;;7.80;4.75;;;;;;;14.28;52.64;101924.59;8011585;28;20028;-69
2021/09/07 02:34:58;;;;;;;6.65;4.32;;;;;;;14.27;52.64;101927.31;8013266;28;20032;-69
2021/09/07 02:38:50;;;;;;;9.20;4.47;;;;;;;14.26;52.68;101930.91;8007550;28;20549;-69
2021/09/07 02:42:41;;;;;;;9.95;4.78;;;;;;;14.22;52.79;101930.25;8014423;28;20473;-69
2021/09/07 02:46:32;;;;;;;8.52;4.53;;;;;;;14.20;52.86;101928.69;8015994;28;20106;-69
2021/09/07 02:50:24;;;;;;;7.03;4.72;;;;;;;14.18;52.72;101935.84;8016883;28;20021;-69
2021/09/07 02:54:16;;;;;;;7.53;4.47;;;;;;;14.10;52.71;101931.06;8018241;28;20778;-69
2021/09/07 02:58:09;;;;;;;6.88;4.28;;;;;;;14.13;52.88;101930.03;8018956;28;20036;-69
2021/09/07 03:02:00;;;;;;;7.13;4.20;;;;;;;14.09;52.83;101923.25;8020817;28;20476;-68
2021/09/07 03:05:50;;;;;;;6.93;4.03;;;;;;;14.05;52.79;101925.22;8013681;28;20538;-68
2021/09/07 03:09:45;;;;;;;5.72;3.95;;;;;;;14.03;52.85;101921.84;7994102;28;20037;-69
2021/09/07 03:13:37;;;;;;;8.18;4.70;;;;;;;14.01;52.93;101922.88;8007018;28;20038;-68
2021/09/07 03:17:28;;;;;;;7.05;4.15;;;;;;;13.99;53.03;101919.47;8008399;28;20115;-68
2021/09/07 03:21:21;;;;;;;7.20;4.43;;;;;;;13.97;52.79;101921.34;8007651;28;20216;-69
2021/09/07 03:25:13;;;;;;;7.25;4.35;;;;;;;13.95;53.22;101923.25;8011216;28;20044;-69
2021/09/07 03:29:03;;;;;;;5.72;4.20;;;;;;;13.88;53.26;101921.00;8014616;28;20547;-68
2021/09/07 03:32:54;;;;;;;6.70;4.20;;;;;;;13.90;53.45;101915.63;8005027;28;20028;-69
2021/09/07 03:36:44;;;;;;;7.60;4.07;;;;;;;13.88;53.27;101915.72;8024416;28;20059;-69
2021/09/07 03:40:35;;;;;;;8.10;4.40;;;;;;;13.88;53.45;101910.44;8018004;28;20041;-69
2021/09/07 03:44:26;;;;;;;7.72;4.43;;;;;;;13.88;53.38;101910.44;8024620;28;20036;-69
2021/09/07 03:48:17;;;;;;;7.35;4.93;;;;;;;13.88;53.47;101910.44;8025412;28;20029;-69
2021/09/07 03:52:09;;;;;;;9.95;4.70;;;;;;;13.90;53.51;101905.06;8012565;28;20417;-69
2021/09/07 03:56:00;;;;;;;7.10;5.00;;;;;;;13.91;53.71;101906.78;8011299;28;20041;-68
2021/09/07 03:59:51;;;;;;;6.80;5.18;;;;;;;13.93;53.95;101910.16;8014519;28;20279;-68
2021/09/07 04:03:43;;;;;;;9.75;4.80;;;;;;;13.96;54.13;101914.41;8016957;28;20497;-68
2021/09/07 04:07:33;;;;;;;9.90;5.25;;;;;;;13.99;54.00;101911.56;8017188;28;20059;-69
2021/09/07 04:11:24;;;;;;;8.05;4.95;;;;;;;13.99;54.24;101912.41;8019005;28;20020;-69
2021/09/07 04:15:15;;;;;;;13.90;5.28;;;;;;;14.01;54.20;101925.53;8023034;28;20484;-69
2021/09/07 04:19:05;;;;;;;8.40;5.03;;;;;;;14.02;54.37;101924.56;8015985;28;20558;-69
2021/09/07 04:22:58;;;;;;;8.73;5.32;;;;;;;13.99;54.34;101919.47;8024390;28;20060;-68
2021/09/07 04:26:49;;;;;;;8.15;5.13;;;;;;;14.00;54.30;101913.25;8015008;28;20036;-68
2021/09/07 04:30:39;;;;;;;7.97;5.40;;;;;;;13.98;54.27;101904.56;8020991;28;20056;-69
2021/09/07 04:34:31;;;;;;;7.43;4.97;;;;;;;14.04;54.45;101918.25;8021525;28;20032;-69
2021/09/07 04:38:21;;;;;;;8.60;5.57;;;;;;;14.05;54.64;101914.63;7999177;28;20029;-68
2021/09/07 04:42:12;;;;;;;9.50;5.40;;;;;;;14.07;54.68;101917.19;8004379;28;20517;-69
2021/09/07 04:46:04;;;;;;;9.05;5.35;;;;;;;14.07;54.72;101914.56;8004757;28;20029;-69
2021/09/07 04:49:55;;;;;;;8.65;5.22;;;;;;;14.10;54.76;101915.19;8003388;28;20089;-69
2021/09/07 04:53:45;;;;;;;8.68;5.43;;;;;;;14.07;54.82;101904.00;8007367;28;20036;-68
2021/09/07 04:57:36;;;;;;;8.15;5.50;;;;;;;14.14;54.83;101918.50;8007435;28;20039;-68
2021/09/07 05:01:26;;;;;;;11.48;6.13;;;;;;;14.15;54.91;101925.47;8003582;28;20533;-69
2021/09/07 05:05:17;;;;;;;9.07;5.90;;;;;;;14.15;54.87;101920.19;8000847;28;20033;-68
2021/09/07 05:09:07;;;;;;;10.10;5.85;;;;;;;14.10;55.04;101909.06;7996925;28;20033;-69
2021/09/07 05:12:58;;;;;;;11.10;5.95;;;;;;;14.19;54.94;101924.31;7996672;28;20045;-68
2021/09/07 05:16:49;;;;;;;8.35;5.45;;;;;;;14.19;55.06;101926.97;7999075;28;20488;-68
2021/09/07 05:20:40;;;;;;;9.70;6.15;;;;;;;14.20;55.14;101923.38;7999164;28;20032;-68
2021/09/07 05:24:30;;;;;;;7.20;5.40;;;;;;;14.22;55.22;101927.63;8001805;28;20031;-69
2021/09/07 05:28:21;;;;;;;9.68;5.78;;;;;;;14.24;55.27;101924.88;8004067;28;20037;-69
2021/09/07 05:32:11;;;;;;;9.70;6.25;;;;;;;14.26;55.58;101929.13;8001074;28;20061;-69
2021/09/07 05:36:02;;;;;;;9.18;6.13;;;;;;;14.29;55.52;101938.66;7996556;28;20039;-69
2021/09/07 05:39:54;;;;;;;9.15;5.80;;;;;;;14.26;55.34;101928.25;8011651;28;20036;-69
2021/09/07 05:43:44;;;;;;;7.72;5.28;;;;;;;14.34;55.57;101936.53;8017959;28;20048;-69
2021/09/07 05:47:35;;;;;;;13.70;6.50;;;;;;;14.30;55.86;101930.59;8019539;28;20760;-69
2021/09/07 05:51:26;;;;;;;9.70;6.15;;;;;;;14.40;55.65;101945.88;8019669;28;20509;-69
2021/09/07 05:55:16;;;;;;;10.10;6.45;;;;;;;14.42;55.75;101954.56;8018961;28;20034;-69
2021/09/07 05:59:07;;;;;;;9.43;6.00;;;;;;;14.45;55.75;101949.09;8017397;28;20040;-69
2021/09/07 06:03:00;;;;;;;13.35;6.70;;;;;;;14.48;55.73;101947.09;8006709;28;20059;-68
2021/09/07 06:06:51;;;;;;;9.95;5.88;;;;;;;14.53;55.68;101950.31;8001499;28;20100;-68
2021/09/07 06:10:42;;;;;;;8.40;6.03;;;;;;;14.56;55.88;101947.44;7998683;28;20515;-68
2021/09/07 06:14:33;;;;;;;9.77;5.90;;;;;;;14.63;55.78;101953.19;8012101;28;20107;-68
2021/09/07 06:18:24;;;;;;;10.25;6.07;;;;;;;14.66;56.14;101945.91;7997867;28;20482;-68
2021/09/07 06:22:15;;;;;;;11.05;5.88;;;;;;;14.73;56.04;101951.63;8001055;28;20039;-68
2021/09/07 06:26:05;;;;;;;9.35;6.32;;;;;;;14.80;56.01;101951.09;7996554;28;20052;-69
2021/09/07 06:29:56;;;;;;;11.30;6.15;;;;;;;14.87;55.94;101956.00;8010407;28;20521;-69
2021/09/07 06:33:46;;;;;;;10.07;6.35;;;;;;;14.93;56.01;101956.44;8005834;28;20036;-69
2021/09/07 06:37:38;;;;;;;12.48;6.55;;;;;;;14.97;56.04;101955.25;7993032;28;20039;-69
2021/09/07 06:41:28;;;;;;;10.27;6.10;;;;;;;15.08;55.99;101952.75;7995941;28;20071;-68
2021/09/07 06:45:19;;;;;;;7.97;5.88;;;;;;;15.18;56.24;101950.31;8000743;28;20033;-69
2021/09/07 06:49:09;;;;;;;11.57;6.45;;;;;;;15.24;56.23;101945.47;8001209;28;20871;-67
2021/09/07 06:53:00;;;;;;;11.15;6.38;;;;;;;15.42;56.28;101959.25;8019160;28;20097;-68
2021/09/07 06:56:51;;;;;;;10.15;5.97;;;;;;;15.57;56.31;101958.19;8013148;28;20040;-68
2021/09/07 07:00:41;;;;;;;15.48;7.53;;;;;;;15.64;56.20;101959.44;8009633;28;20086;-69
2021/09/07 07:04:32;;;;;;;13.75;8.55;;;;;;;15.84;56.24;101970.44;8016272;28;20051;-67
2021/09/07 07:08:22;;;;;;;21.88;8.57;;;;;;;15.96;56.24;101978.34;8010259;28;20089;-69
2021/09/07 07:12:13;;;;;;;12.65;8.98;;;;;;;16.08;56.23;101960.72;8023052;28;20033;-68
2021/09/07 07:16:04;;;;;;;15.35;8.68;;;;;;;16.30;56.17;101976.81;8022708;28;20473;-68
2021/09/07 07:19:55;;;;;;;13.23;8.18;;;;;;;16.45;56.11;101975.66;8019689;28;20037;-69
2021/09/07 07:23:47;;;;;;;14.77;8.10;;;;;;;16.61;56.05;101978.91;8012746;28;20086;-68
2021/09/07 07:27:39;;;;;;;13.80;8.25;;;;;;;16.77;55.95;101977.75;8025963;28;20119;-69
2021/09/07 07:31:30;;;;;;;13.57;8.50;;;;;;;16.98;55.84;101987.66;8020157;28;20064;-69
2021/09/07 07:35:21;;;;;;;19.55;8.98;;;;;;;17.21;55.97;101988.53;8017409;28;21204;-69
2021/09/07 07:39:12;;;;;;;17.02;10.55;;;;;;;17.37;55.64;101988.19;8017082;28;20037;-68
2021/09/07 07:43:03;;;;;;;26.85;10.38;;;;;;;17.49;55.75;101988.09;8023070;28;20037;-68
2021/09/07 07:46:53;;;;;;;18.23;10.20;;;;;;;17.66;55.58;101988.59;8024128;28;20082;-69
2021/09/07 07:50:44;;;;;;;19.45;10.57;;;;;;;17.83;55.40;101996.13;8017675;28;20496;-68
2021/09/07 07:54:34;;;;;;;20.10;10.70;;;;;;;18.02;55.47;101993.72;8015436;28;20037;-68
2021/09/07 07:58:25;;;;;;;22.55;10.82;;;;;;;18.27;55.06;101987.25;8023102;28;20033;-69
2021/09/07 08:02:16;;;;;;;22.65;10.40;;;;;;;18.52;54.64;101986.97;8023048;28;20643;-68
2021/09/07 08:06:06;;;;;;;16.42;10.13;;;;;;;18.64;54.44;101982.47;8021141;28;20573;-69
2021/09/07 08:09:57;;;;;;;17.27;10.65;;;;;;;18.83;54.48;101994.09;8020875;28;20048;-69
2021/09/07 08:13:49;;;;;;;28.55;11.52;;;;;;;19.02;54.36;102001.38;8019505;28;20111;-69
2021/09/07 08:17:40;;;;;;;24.67;13.45;;;;;;;19.18;54.34;101996.50;8020170;28;20657;-69
2021/09/07 08:21:31;;;;;;;24.02;12.15;;;;;;;19.32;53.77;102000.63;8002608;28;20078;-69
2021/09/07 08:25:21;;;;;;;21.60;11.27;;;;;;;19.46;54.04;102002.13;7995815;28;20830;-69
2021/09/07 08:29:12;;;;;;;17.88;11.10;;;;;;;19.54;53.92;102000.50;7989471;28;20087;-69
2021/09/07 08:33:03;;;;;;;17.42;10.32;;;;;;;19.56;53.87;102001.19;8014341;28;20032;-69
2021/09/07 08:36:55;;;;;;;17.45;11.20;;;;;;;19.57;53.28;101996.69;8004048;28;20036;-69
2021/09/07 08:40:48;;;;;;;17.98;10.93;;;;;;;19.65;53.21;102002.22;8010791;28;20594;-69
2021/09/07 08:44:45;;;;;;;20.85;12.18;;;;;;;19.70;53.66;102003.50;8008645;28;20048;-68
2021/09/07 08:48:37;;;;;;;19.05;10.65;;;;;;;19.86;53.77;102011.03;7996761;28;20041;-68
2021/09/07 08:52:29;;;;;;;18.52;11.63;;;;;;;20.05;53.68;102003.13;8002010;28;20044;-68
2021/09/07 08:56:20;;;;;;;17.75;11.88;;;;;;;20.26;53.70;102003.84;8006145;28;20078;-68
2021/09/07 09:00:11;;;;;;;18.20;12.32;;;;;;;20.46;53.60;102003.91;8008528;28;20482;-68
2021/09/07 09:04:01;;;;;;;22.83;12.43;;;;;;;20.64;53.26;101994.25;8002715;28;20041;-68
2021/09/07 09:07:52;;;;;;;22.80;13.07;;;;;;;20.81;53.36;101998.88;8005149;28;20555;-68
2021/09/07 09:11:57;;;;;;;21.98;12.98;;;;;;;20.89;52.74;101988.34;8011595;28;20025;-68
2021/09/07 09:16:06;;;;;;;18.17;11.32;;;;;;;21.04;52.66;101994.09;8015538;28;20063;-68
2021/09/07 09:20:06;;;;;;;22.58;11.65;;;;;;;21.17;52.44;101992.78;8006090;28;20032;-68
2021/09/07 09:24:19;;;;;;;17.85;10.65;;;;;;;21.28;52.02;101996.34;8015892;28;20050;-69
2021/09/07 09:28:15;;;;;;;23.45;11.55;;;;;;;21.33;51.86;101992.25;8015693;28;20071;-70
2021/09/07 09:32:10;;;;;;;16.90;11.00;;;;;;;21.36;51.57;101994.63;8016820;28;20063;-69
2021/09/07 09:36:02;;;;;;;20.70;11.23;;;;;;;21.40;51.36;101997.84;8021543;28;20081;-68
2021/09/07 09:39:53;;;;;;;21.60;10.75;;;;;;;21.40;51.44;101988.00;7993639;28;20045;-69
2021/09/07 09:43:44;;;;;;;16.48;10.95;;;;;;;21.44;50.85;101993.91;7994550;28;20021;-68
2021/09/07 09:47:41;;;;;;;14.60;10.25;;;;;;;21.43;50.77;101982.38;8014815;28;20040;-68
2021/09/07 09:51:31;;;;;;;20.33;9.97;;;;;;;21.42;50.79;101983.34;8015305;28;20761;-69
2021/09/07 09:55:23;;;;;;;13.77;9.20;;;;;;;21.44;50.21;101970.69;8004166;28;20029;-69
2021/09/07 09:59:14;;;;;;;14.90;8.40;;;;;;;21.47;49.94;101972.22;8006355;28;20028;-70
2021/09/07 10:03:09;;;;;;;14.23;9.60;;;;;;;21.49;49.87;101967.59;8001978;28;20033;-69
2021/09/07 10:06:59;;;;;;;16.80;9.55;;;;;;;21.50;49.68;101967.41;8017000;28;20183;-68
2021/09/07 10:11:00;;;;;;;13.48;9.18;;;;;;;21.51;49.44;101970.94;8010076;28;20647;-70
2021/09/07 10:15:43;;;;;;;14.75;8.40;;;;;;;21.57;49.13;101965.88;8004201;28;20036;-68
2021/09/07 10:19:25;;;;;;;11.65;8.18;;;;;;;21.63;49.14;101948.38;8000972;28;20045;-68
2021/09/07 10:23:29;;;;;;;14.02;9.00;;;;;;;21.79;48.79;101951.28;8004992;28;20076;-68
2021/09/07 10:27:20;;;;;;;11.38;7.65;;;;;;;21.88;47.97;101955.75;8007331;28;20067;-68
2021/09/07 10:31:16;;;;;;;11.07;7.18;;;;;;;21.95;47.98;101953.31;8016889;28;20143;-68
2021/09/07 10:35:13;;;;;;;12.88;8.35;;;;;;;22.03;47.97;101950.75;8000903;28;20040;-68
2021/09/07 10:39:06;;;;;;;11.25;6.82;;;;;;;22.04;47.34;101933.72;8006118;28;20035;-68
2021/09/07 10:42:57;;;;;;;11.70;7.30;;;;;;;22.17;47.30;101946.69;8013935;28;20033;-68
2021/09/07 10:46:48;;;;;;;14.40;7.60;;;;;;;22.21;47.18;101934.72;8022407;28;20036;-69
2021/09/07 10:51:03;;;;;;;9.98;6.80;;;;;;;22.20;47.04;101930.34;8008268;28;20135;-69
2021/09/07 10:55:12;;;;;;;11.50;7.35;;;;;;;22.23;46.90;101927.38;8005968;28;20051;-69
2021/09/07 10:59:03;;;;;;;11.50;6.45;;;;;;;22.26;46.85;101916.34;8015460;28;20032;-68
2021/09/07 11:03:07;;;;;;;9.40;6.55;;;;;;;22.23;46.57;101912.16;8015519;28;20040;-69
2021/09/07 11:06:59;;;;;;;10.93;6.60;;;;;;;22.16;46.58;101895.03;8015243;28;20040;-68
2021/09/07 11:10:54;;;;;;;11.25;6.03;;;;;;;22.15;46.29;101892.50;7996159;28;20044;-69
2021/09/07 11:15:09;;;;;;;11.60;7.10;;;;;;;22.13;45.78;101892.63;8004004;28;20048;-69
2021/09/07 11:19:01;;;;;;;9.80;6.68;;;;;;;22.06;45.83;101887.06;8015043;28;20378;-68
2021/09/07 11:22:53;;;;;;;10.63;6.60;;;;;;;22.10;45.83;101898.31;8019694;28;20037;-67
2021/09/07 11:26:43;;;;;;;11.07;7.10;;;;;;;22.08;45.59;101901.13;8007737;28;20040;-68
2021/09/07 11:30:37;;;;;;;8.32;5.45;;;;;;;22.06;45.90;101897.78;8006376;28;20029;-69
2021/09/07 11:34:27;;;;;;;9.25;6.25;;;;;;;22.07;45.55;101893.25;8023493;28;20024;-68
2021/09/07 11:38:28;;;;;;;13.88;5.68;;;;;;;22.07;45.43;101899.47;7997120;28;20495;-69
2021/09/07 11:42:19;;;;;;;8.80;5.22;;;;;;;22.09;45.82;101894.78;8006131;28;20033;-68
2021/09/07 11:46:17;;;;;;;9.18;5.53;;;;;;;22.11;45.68;101893.78;8017432;28;20071;-68
2021/09/07 11:50:08;;;;;;;11.40;5.85;;;;;;;22.12;45.38;101896.34;8027028;28;20044;-69
2021/09/07 11:54:01;;;;;;;10.27;5.85;;;;;;;22.13;45.03;101889.97;8023662;28;20155;-67
2021/09/07 11:57:52;;;;;;;10.48;5.80;;;;;;;22.13;45.18;101887.28;8018473;28;20036;-69
2021/09/07 12:01:45;;;;;;;8.77;4.88;;;;;;;22.16;45.10;101883.47;8023343;28;20031;-68
2021/09/07 12:05:58;;;;;;;9.48;5.32;;;;;;;22.15;45.09;101879.97;8011039;28;20036;-68
2021/09/07 12:09:49;;;;;;;6.00;4.53;;;;;;;22.20;45.05;101883.03;8001306;28;20059;-68
2021/09/07 12:13:40;;;;;;;7.93;4.93;;;;;;;22.23;44.88;101879.19;8004803;28;20397;-68
2021/09/07 12:17:35;;;;;;;6.53;4.35;;;;;;;22.25;44.81;101874.53;8005828;28;20132;-69
2021/09/07 12:21:26;;;;;;;9.65;5.85;;;;;;;22.24;44.85;101865.66;7996465;28;20677;-68
2021/09/07 12:25:18;;;;;;;10.70;6.18;;;;;;;22.29;44.58;101867.88;8007379;28;20095;-68
2021/09/07 12:29:17;;;;;;;7.68;4.95;;;;;;;22.29;44.46;101866.03;8004306;28;20083;-67
2021/09/07 12:33:10;;;;;;;11.07;5.15;;;;;;;22.31;44.51;101868.56;7999955;28;20963;-69
2021/09/07 12:37:03;;;;;;;11.35;5.60;;;;;;;22.32;44.31;101859.53;8003228;28;20508;-69
2021/09/07 12:41:00;;;;;;;9.65;5.47;;;;;;;22.33;44.30;101855.88;8008970;28;20036;-68
2021/09/07 12:44:51;;;;;;;7.90;5.13;;;;;;;22.34;44.30;101850.34;8018703;28;20095;-66
2021/09/07 12:48:43;;;;;;;9.23;5.40;;;;;;;22.37;44.14;101842.00;8011952;28;20032;-68
2021/09/07 12:52:34;;;;;;;10.13;5.65;;;;;;;22.39;44.03;101845.38;8013829;28;20036;-68
2021/09/07 12:56:29;;;;;;;7.15;4.85;;;;;;;22.43;44.05;101843.22;8000293;28;20060;-68
2021/09/07 13:00:20;;;;;;;6.85;4.82;;;;;;;22.42;43.68;101834.34;8002355;28;20037;-68
2021/09/07 13:04:10;;;;;;;9.35;5.50;;;;;;;22.46;43.44;101829.53;8008625;28;20421;-68
2021/09/07 13:08:02;;;;;;;12.05;5.80;;;;;;;22.47;43.54;101828.56;8017470;28;20036;-68
2021/09/07 13:11:52;;;;;;;7.38;5.03;;;;;;;22.48;43.28;101828.41;8033849;28;20490;-68
2021/09/07 13:15:43;;;;;;;10.50;4.88;;;;;;;22.46;43.50;101816.13;8001073;28;20043;-68
2021/09/07 13:19:33;;;;;;;11.52;6.35;;;;;;;22.51;43.36;101817.38;8010666;28;20037;-69
2021/09/07 13:23:25;;;;;;;8.93;5.20;;;;;;;22.53;43.17;101812.72;8039987;28;20622;-68
2021/09/07 13:27:16;;;;;;;9.05;5.55;;;;;;;22.54;43.17;101811.72;8019237;28;20567;-69
2021/09/07 13:31:07;;;;;;;8.95;5.47;;;;;;;22.56;43.21;101816.06;8022157;28;20033;-68
2021/09/07 13:34:57;;;;;;;12.95;5.93;;;;;;;22.60;42.86;101809.41;8011378;28;20037;-68
2021/09/07 13:38:48;;;;;;;9.25;5.93;;;;;;;22.54;42.96;101786.78;8008131;28;20048;-68
2021/09/07 13:42:39;;;;;;;13.88;5.70;;;;;;;22.63;42.96;101796.53;8007877;28;20059;-68
2021/09/07 13:46:29;;;;;;;6.38;4.32;;;;;;;22.67;42.87;101799.75;8008052;28;20045;-68
2021/09/07 13:50:20;;;;;;;9.32;4.50;;;;;;;22.66;42.69;101782.84;8006580;28;20043;-68
2021/09/07 13:54:11;;;;;;;8.10;5.20;;;;;;;22.72;42.89;101784.03;8007937;28;20610;-68
2021/09/07 13:58:02;;;;;;;8.23;5.10;;;;;;;22.74;42.91;101771.34;8024259;28;20068;-70
2021/09/07 14:01:53;;;;;;;12.52;5.75;;;;;;;22.76;42.77;101774.69;8007258;28;20094;-68
2021/09/07 14:05:44;;;;;;;8.40;5.40;;;;;;;22.78;42.69;101764.66;8024472;28;20037;-68
2021/09/07 14:09:35;;;;;;;10.20;5.38;;;;;;;22.80;42.75;101768.00;8007271;28;20037;-68
2021/09/07 14:13:28;;;;;;;8.07;4.95;;;;;;;22.81;42.74;101750.94;8006933;28;20443;-69
2021/09/07 14:17:19;;;;;;;7.93;4.75;;;;;;;22.83;42.39;101748.97;8007323;28;20044;-69
2021/09/07 14:21:11;;;;;;;7.57;4.82;;;;;;;22.82;42.27;101745.44;8007011;28;20032;-68
2021/09/07 14:25:04;;;;;;;8.70;4.25;;;;;;;22.83;41.95;101741.75;8012124;28;20052;-68
2021/09/07 14:28:56;;;;;;;7.10;4.82;;;;;;;22.80;42.39;101735.88;8018784;28;20083;-68
2021/09/07 14:32:46;;;;;;;7.00;4.63;;;;;;;22.86;42.43;101746.81;8024429;28;20024;-67
2021/09/07 14:36:37;;;;;;;8.63;4.32;;;;;;;22.86;42.13;101744.13;8038356;28;20097;-68
2021/09/07 14:40:27;;;;;;;6.45;3.92;;;;;;;22.86;42.29;101741.44;8038807;28;20404;-67
2021/09/07 14:44:18;;;;;;;7.20;4.07;;;;;;;22.89;42.02;101740.28;8016582;28;20036;-68
2021/09/07 14:48:08;;;;;;;6.47;4.00;;;;;;;22.83;42.10;101723.00;8002804;28;20033;-68
2021/09/07 14:51:59;;;;;;;5.28;3.47;;;;;;;22.93;42.06;101736.28;8029843;28;20108;-68
2021/09/07 14:55:51;;;;;;;11.68;3.58;;;;;;;22.91;42.18;101722.22;8037977;28;20050;-68
2021/09/07 14:59:41;;;;;;;6.20;3.75;;;;;;;22.99;41.99;101730.28;8017641;28;20119;-68
2021/09/07 15:03:32;;;;;;;7.97;4.07;;;;;;;23.02;42.00;101729.09;8025110;28;20511;-68
2021/09/07 15:07:23;;;;;;;12.00;4.30;;;;;;;23.02;41.79;101723.75;8038234;28;20509;-68
2021/09/07 15:11:13;;;;;;;7.47;3.72;;;;;;;23.03;41.94;101722.75;8006723;28;20033;-68
2021/09/07 15:15:04;;;;;;;7.78;4.22;;;;;;;23.03;41.60;101717.38;8023135;28;20036;-67
2021/09/07 15:18:55;;;;;;;5.78;3.63;;;;;;;23.03;41.67;101709.34;8017840;28;20091;-68
2021/09/07 15:22:45;;;;;;;5.90;3.83;;;;;;;23.02;41.56;101705.84;8008524;28;20041;-68
2021/09/07 15:26:37;;;;;;;8.82;3.88;;;;;;;23.00;41.48;101707.81;8011202;28;20041;-68
2021/09/07 15:30:27;;;;;;;6.53;3.70;;;;;;;22.99;41.60;101708.84;8011950;28;20036;-68
2021/09/07 15:34:19;;;;;;;7.78;3.65;;;;;;;22.96;41.51;101710.00;8011508;28;20037;-68
2021/09/07 15:38:09;;;;;;;4.82;3.70;;;;;;;22.96;41.52;101706.47;8011917;28;20040;-68
2021/09/07 15:42:00;;;;;;;6.72;3.90;;;;;;;22.91;41.46;101700.78;8011270;28;20033;-68
2021/09/07 15:45:51;;;;;;;7.72;4.20;;;;;;;22.91;41.35;101708.81;8011604;28;20079;-68
2021/09/07 15:49:42;;;;;;;5.05;3.35;;;;;;;22.90;41.85;101701.78;8010685;28;20120;-68
2021/09/07 15:53:40;;;;;;;4.80;3.08;;;;;;;22.89;41.73;101702.75;8011053;28;20738;-68
2021/09/07 15:57:32;;;;;;;5.18;3.38;;;;;;;22.89;41.55;101706.28;8011173;28;20116;-68
2021/09/07 16:01:25;;;;;;;4.47;2.50;;;;;;;22.88;41.59;101696.56;8011382;28;20033;-68
2021/09/07 16:05:16;;;;;;;5.93;3.72;;;;;;;22.87;41.46;101691.38;8010488;28;20481;-68
2021/09/07 16:09:07;;;;;;;3.83;3.33;;;;;;;22.85;41.62;101691.53;8010439;28;20029;-68
2021/09/07 16:12:58;;;;;;;7.20;4.13;;;;;;;22.84;41.51;101689.84;8010375;28;20207;-68
2021/09/07 16:16:48;;;;;;;5.13;3.17;;;;;;;22.84;41.45;101686.34;8010531;28;20028;-68
2021/09/07 16:20:39;;;;;;;4.45;3.25;;;;;;;22.81;41.26;101686.66;8025766;28;20036;-68
2021/09/07 16:24:29;;;;;;;3.58;2.45;;;;;;;22.77;41.12;101688.00;8041737;28;20036;-68
2021/09/07 16:28:20;;;;;;;9.10;3.08;;;;;;;22.66;41.05;101675.75;8041655;28;20093;-68
2021/09/07 16:32:11;;;;;;;4.25;2.85;;;;;;;22.70;41.33;101685.13;8041829;28;20029;-68
2021/09/07 16:36:02;;;;;;;4.25;2.90;;;;;;;22.68;41.07;101675.56;8040953;28;20490;-68
2021/09/07 16:39:53;;;;;;;4.13;2.85;;;;;;;22.64;41.25;101666.16;8041540;28;20124;-68
2021/09/07 16:43:44;;;;;;;5.13;3.17;;;;;;;22.61;41.27;101663.81;8040740;28;20041;-68
2021/09/07 16:47:34;;;;;;;4.25;2.95;;;;;;;22.56;40.94;101664.28;8041330;28;20601;-68
2021/09/07 16:51:25;;;;;;;3.95;2.85;;;;;;;22.51;41.13;101662.09;8040761;28;20086;-68
2021/09/07 16:55:43;;;;;;;6.20;3.15;;;;;;;22.46;41.18;101658.19;8040941;28;20032;-69
2021/09/07 16:59:26;;;;;;;5.15;3.15;;;;;;;22.42;41.19;101656.81;8024235;28;20079;-69
2021/09/07 17:03:17;;;;;;;4.30;2.95;;;;;;;22.37;41.20;101656.50;8018903;28;20032;-69
2021/09/07 17:07:14;;;;;;;4.43;3.15;;;;;;;22.31;40.86;101655.28;8034633;28;20040;-69
2021/09/07 17:11:05;;;;;;;;;;;;;;;22.10;41.68;101654.81;8041360;28;20110;-68
2021/09/07 17:14:56;;;;;;;4.10;2.97;;;;;;;22.16;41.50;101648.84;8031321;28;20316;-68
2021/09/07 17:18:47;;;;;;;4.05;2.80;;;;;;;22.15;41.31;101643.63;8008657;28;20475;-68
2021/09/07 17:22:37;;;;;;;5.47;3.08;;;;;;;22.09;41.10;101637.06;8030801;28;20085;-69
2021/09/07 17:26:28;;;;;;;5.70;3.50;;;;;;;22.06;41.38;101640.06;8021576;28;20044;-68
2021/09/07 17:30:21;;;;;;;2.90;2.28;;;;;;;22.01;41.38;101637.03;8012476;28;20397;-69
2021/09/07 17:41:59;;;;;;;11.02;3.80;;;;;;;21.84;41.39;101628.06;8014755;28;20070;-69
2021/09/07 17:45:49;;;;;;;8.82;3.15;;;;;;;21.77;41.77;101632.31;8031231;28;20044;-69
2021/09/07 17:49:43;;;;;;;6.70;3.47;;;;;;;21.69;41.94;101632.25;8039147;28;20739;-68
2021/09/07 17:53:34;;;;;;;9.93;3.83;;;;;;;21.60;41.98;101635.88;8039127;28;20032;-68
2021/09/07 17:57:24;;;;;;;9.50;3.78;;;;;;;21.50;42.05;101627.13;8039429;28;20028;-68
2021/09/07 18:01:15;;;;;;;14.25;4.15;;;;;;;21.38;41.96;101639.84;8018483;28;20037;-68